Time,TemperatureF,DewpointF,PressureIn,WindDirection,WindDirectionDegrees,WindSpeedMPH,WindSpeedGustMPH,Humidity,HourlyPrecipIn,Conditions,Clouds,dailyrainin,SoftwareType,DateUTC
2013-06-22 10:02:00,80.0,-99.9,-100.00,SE,145,8.0,15.0,-999,0.00,,,-99.99,,2013-06-22 15:02:00,
2013-06-22 10:22:00,76.0,76.0,-100.00,ESE,115,14.0,21.0,99,0.00,,,-99.99,,2013-06-22 15:22:00,
2013-06-22 10:34:00,75.0,75.0,-100.00,ESE,110,12.0,21.0,99,0.00,,,-99.99,,2013-06-22 15:34:00,
2013-06-22 10:43:00,77.0,77.0,-100.00,SE,125,10.0,17.0,99,0.00,,,-99.99,,2013-06-22 15:43:00,
2013-06-22 12:02:00,85.0,81.0,-100.00,South,180,7.0,13.0,86,0.00,,,-99.99,,2013-06-22 17:02:00,
2013-06-22 12:11:00,86.0,80.0,-100.00,South,190,7.0,14.0,82,0.00,,,-99.99,,2013-06-22 17:11:00,
2013-06-22 12:34:00,87.0,81.0,-100.00,South,175,14.0,21.0,81,0.00,,,-99.99,,2013-06-22 17:34:00,
2013-06-22 12:43:00,87.0,81.0,-100.00,South,175,10.0,21.0,80,0.00,,,-99.99,,2013-06-22 17:43:00,
2013-06-22 13:34:00,88.0,81.0,-100.00,SSW,195,9.0,18.0,79,0.00,,,-99.99,,2013-06-22 18:34:00,
2013-06-22 13:43:00,88.0,81.0,-100.00,SSE,165,12.0,17.0,81,0.00,,,-99.99,,2013-06-22 18:43:00,
2013-06-22 13:52:00,88.0,81.0,-100.00,SSE,165,12.0,17.0,81,0.00,,,-99.99,,2013-06-22 18:52:00,
2013-06-22 14:33:00,89.0,81.0,-100.00,South,175,16.0,22.0,76,0.00,,,-99.99,,2013-06-22 19:33:00,
2013-06-22 15:02:00,90.0,81.0,-100.00,South,175,16.0,24.0,76,0.00,,,-99.99,,2013-06-22 20:02:00,
2013-06-22 17:43:00,91.0,81.0,-100.00,South,185,10.0,16.0,73,0.00,,,-99.99,,2013-06-22 22:43:00,
2013-06-22 17:52:00,91.0,81.0,-100.00,South,185,10.0,16.0,73,0.00,,,-99.99,,2013-06-22 22:52:00,
2013-06-22 21:01:00,86.0,79.0,-100.00,South,175,8.0,16.0,81,0.00,,,-99.99,,2013-06-23 02:01:00,
2013-06-22 21:11:00,85.0,79.0,-100.00,South,190,9.0,19.0,81,0.00,,,-99.99,,2013-06-23 02:11:00,
2013-06-22 21:21:00,85.0,80.0,-100.00,South,185,7.0,13.0,83,0.00,,,-99.99,,2013-06-23 02:21:00,
2013-06-22 21:31:00,85.0,79.0,-100.00,South,185,8.0,14.0,84,0.00,,,-99.99,,2013-06-23 02:31:00,
2013-06-22 21:41:00,85.0,79.0,-100.00,South,185,8.0,14.0,84,0.00,,,-99.99,,2013-06-23 02:41:00,
2013-06-22 22:01:00,84.0,80.0,-100.00,South,180,9.0,18.0,86,0.00,,,-99.99,,2013-06-23 03:01:00,
2013-06-22 22:31:00,83.0,80.0,-100.00,SSE,165,10.0,15.0,91,0.00,,,-99.99,,2013-06-23 03:31:00,
2013-06-22 23:01:00,82.0,80.0,-100.00,South,175,10.0,14.0,94,0.00,,,-99.99,,2013-06-23 04:01:00,
2013-06-22 23:21:00,82.0,80.0,-100.00,SSE,165,10.0,14.0,95,0.00,,,-99.99,,2013-06-23 04:21:00,
2013-06-22 23:31:00,81.0,80.0,-100.00,South,170,10.0,14.0,96,0.00,,,-99.99,,2013-06-23 04:31:00,
2013-06-22 23:42:00,81.0,80.0,-100.00,SSE,165,9.0,13.0,97,0.00,,,-99.99,,2013-06-23 04:42:00,